createdAt,value
2022-10-19T00:00:48.560Z,101694.45703125
2022-10-19T00:01:51.689Z,101694.62109375
2022-10-19T00:02:48.525Z,101691.68359375
2022-10-19T00:04:59.045Z,101691.84375
2022-10-19T00:05:58.773Z,101692.28515625
2022-10-19T00:06:58.825Z,101691.3515625
2022-10-19T00:07:58.805Z,101694.671875
2022-10-19T00:08:58.980Z,101692.28515625
2022-10-19T00:10:01.803Z,101688.08203125
2022-10-19T00:10:58.798Z,101691.05078125
2022-10-19T00:11:58.700Z,101691.9296875
2022-10-19T00:12:58.616Z,101689.42578125
2022-10-19T00:13:59.038Z,101691.078125
2022-10-19T00:14:58.757Z,101689.51171875
2022-10-19T00:15:58.595Z,101689.96875
2022-10-19T00:16:58.595Z,101689.7734375
2022-10-19T00:17:58.652Z,101687.90625
2022-10-19T00:18:59.065Z,101689.90625
2022-10-19T00:19:58.971Z,101691.16796875
2022-10-19T00:21:01.794Z,101688.91796875
2022-10-19T00:21:58.787Z,101688.640625
2022-10-19T00:22:58.753Z,101687.875
2022-10-19T00:23:58.975Z,101692.12109375
2022-10-19T00:24:58.811Z,101687.328125
2022-10-19T00:25:58.833Z,101690.4765625
2022-10-19T00:26:58.701Z,101687.2734375
2022-10-19T00:27:58.738Z,101687.328125
2022-10-19T00:28:59.032Z,101686.0859375
2022-10-19T00:29:58.809Z,101684.3984375
2022-10-19T00:30:58.698Z,101684.96484375
2022-10-19T00:32:01.683Z,101683.16796875
2022-10-19T00:32:58.733Z,101682.12109375
2022-10-19T00:33:59.065Z,101679.76171875
2022-10-19T00:34:59.077Z,101680.15234375
2022-10-19T00:35:58.782Z,101676.34375
2022-10-19T00:36:58.616Z,101678.83203125
2022-10-19T00:37:58.605Z,101682.17578125
2022-10-19T00:38:59.052Z,101680.7890625
2022-10-19T00:39:58.791Z,101678.54296875
2022-10-19T00:40:58.808Z,101683.71875
2022-10-19T00:41:58.664Z,101679.328125
2022-10-19T00:43:01.739Z,101681.8515625
2022-10-19T00:43:58.972Z,101682.34375
2022-10-19T00:44:58.772Z,101681.08203125
2022-10-19T00:45:58.733Z,101681.8515625
2022-10-19T00:46:58.716Z,101683.609375
2022-10-19T00:47:58.723Z,101682.12890625
2022-10-19T00:49:01.056Z,101681.6328125
2022-10-19T00:49:59.089Z,101679.10546875
2022-10-19T00:50:58.699Z,101678.40625
2022-10-19T00:51:58.687Z,101681.109375
2022-10-19T00:52:58.590Z,101681.0546875
2022-10-19T00:54:05.136Z,101676.73046875
2022-10-19T00:54:58.673Z,101679.4609375
2022-10-19T00:55:58.615Z,101678.80078125
2022-10-19T00:56:58.614Z,101677.0625
2022-10-19T00:57:58.624Z,101674.35546875
2022-10-19T00:59:00.963Z,101677.17578125
2022-10-19T00:59:58.600Z,101675.4140625
2022-10-19T01:00:58.787Z,101675.578125
2022-10-19T01:01:58.779Z,101674.0546875
2022-10-19T01:02:58.651Z,101670.15625
2022-10-19T01:03:58.669Z,101674.05859375
2022-10-19T01:05:02.045Z,101671.81640625
2022-10-19T01:05:58.816Z,101670.22265625
2022-10-19T01:07:01.583Z,101671.09765625
2022-10-19T01:07:58.713Z,101671.2734375
2022-10-19T01:08:58.625Z,101667.265625
2022-10-19T01:09:59.106Z,101669.40625
2022-10-19T01:10:58.600Z,101668.31640625
2022-10-19T01:11:58.616Z,101673.453125
2022-10-19T01:12:58.696Z,101670.0078125
2022-10-19T01:13:58.666Z,101669.60546875
2022-10-19T01:14:59.045Z,101668.359375
2022-10-19T01:16:01.752Z,101666.609375
2022-10-19T01:16:58.701Z,101665.0703125
2022-10-19T01:17:58.602Z,101665.6328125
2022-10-19T01:18:58.726Z,101662.1171875
2022-10-19T01:19:58.972Z,101662.72265625
2022-10-19T01:20:58.677Z,101661.1875
2022-10-19T01:21:58.608Z,101661.515625
2022-10-19T01:22:58.612Z,101658.48828125
2022-10-19T01:23:58.738Z,101661.234375
2022-10-19T01:24:58.978Z,101660.46484375
2022-10-19T01:25:58.820Z,101659.7578125
2022-10-19T01:27:01.742Z,101662.98046875
2022-10-19T01:27:58.805Z,101666.0546875
2022-10-19T01:28:58.718Z,101663.69140625
2022-10-19T01:29:59.044Z,101662.53515625
2022-10-19T01:30:58.781Z,101666.828125
2022-10-19T01:31:58.701Z,101663.15625
2022-10-19T01:32:58.623Z,101664.0390625
2022-10-19T01:33:58.747Z,101666.10546875
2022-10-19T01:34:58.971Z,101665.66796875
2022-10-19T01:35:58.826Z,101668.03125
2022-10-19T01:36:58.777Z,101663.58203125
2022-10-19T01:38:01.824Z,101661.60546875
2022-10-19T01:38:58.824Z,101661.44140625
2022-10-19T01:39:59.256Z,101658.984375
2022-10-19T01:40:58.687Z,101657.51171875
2022-10-19T01:41:58.592Z,101658.89453125
2022-10-19T01:42:58.617Z,101657.19140625
2022-10-19T01:43:58.602Z,101655.28125
2022-10-19T01:44:59.038Z,101655.94140625
2022-10-19T01:45:59.115Z,101656.7421875
2022-10-19T01:46:58.722Z,101655.26953125
2022-10-19T01:47:58.617Z,101657.5625
2022-10-19T01:49:01.637Z,101654.85546875
2022-10-19T01:49:59.064Z,101655.8046875
2022-10-19T01:50:58.718Z,101658.87109375
2022-10-19T01:53:06.226Z,101653.4453125
2022-10-19T01:54:06.285Z,101657.7734375
2022-10-19T01:55:06.591Z,101655.98046875
2022-10-19T01:56:06.254Z,101656.14453125
2022-10-19T01:57:06.162Z,101653.56640625
2022-10-19T01:58:09.695Z,101653.5703125
2022-10-19T01:59:06.352Z,101651.6875
2022-10-19T02:00:06.650Z,101650.15234375
2022-10-19T02:01:06.311Z,101651.75390625
2022-10-19T02:02:06.152Z,101650.7109375
2022-10-19T02:03:06.151Z,101646.08984375
2022-10-19T02:04:06.151Z,101648.76953125
2022-10-19T02:05:06.591Z,101648.9921875
2022-10-19T02:06:06.146Z,101648.3359375
2022-10-19T02:07:06.180Z,101647.94921875
2022-10-19T02:08:06.155Z,101648.09765625
2022-10-19T02:09:09.257Z,101646.40234375
2022-10-19T02:10:06.570Z,101650.0703125
2022-10-19T02:11:06.246Z,101648.48046875
2022-10-19T02:12:06.139Z,101647.0546875
2022-10-19T02:13:06.168Z,101648
2022-10-19T02:14:06.292Z,101647.359375
2022-10-19T02:15:06.519Z,101647.0859375
2022-10-19T02:16:06.147Z,101645.60546875
2022-10-19T02:17:06.360Z,101645.546875
2022-10-19T02:18:06.214Z,101648.25
2022-10-19T02:19:06.157Z,101647.54296875
2022-10-19T02:20:12.566Z,101646.453125
2022-10-19T02:21:06.262Z,101650.234375
2022-10-19T02:22:06.279Z,101646.94921875
2022-10-19T02:23:06.154Z,101648.95703125
2022-10-19T02:24:06.162Z,101647.81640625
2022-10-19T02:25:06.633Z,101648.02734375
2022-10-19T02:26:06.160Z,101647.75390625
2022-10-19T02:27:06.161Z,101650.21875
2022-10-19T02:28:06.229Z,101645.12109375
2022-10-19T02:29:06.176Z,101645.390625
2022-10-19T02:30:06.601Z,101647.30859375
2022-10-19T02:31:09.180Z,101645.609375
2022-10-19T02:32:06.248Z,101645.4375
2022-10-19T02:33:06.255Z,101644.47265625
2022-10-19T02:34:06.334Z,101643.578125
2022-10-19T02:35:06.521Z,101647.921875
2022-10-19T02:36:06.318Z,101641.2265625
2022-10-19T02:37:06.154Z,101645.33984375
2022-10-19T02:38:06.291Z,101643.36328125
2022-10-19T02:39:06.256Z,101639.8671875
2022-10-19T02:40:06.586Z,101639.0390625
2022-10-19T02:41:06.307Z,101639.75390625
2022-10-19T02:42:09.372Z,101641.1171875
2022-10-19T02:43:06.271Z,101638
2022-10-19T02:44:06.149Z,101638.94140625
2022-10-19T02:45:06.592Z,101641.61328125
2022-10-19T02:46:06.207Z,101637.9296875
2022-10-19T02:47:06.177Z,101633.25390625
2022-10-19T02:48:06.231Z,101634.3984375
2022-10-19T02:49:06.147Z,101631.9296875
2022-10-19T02:50:06.594Z,101630.83203125
2022-10-19T02:51:06.239Z,101631.16015625
2022-10-19T02:52:06.160Z,101631.32421875
2022-10-19T02:53:09.199Z,101629.62890625
2022-10-19T02:54:06.379Z,101627.4140625
2022-10-19T02:55:06.515Z,101627.80078125
2022-10-19T02:56:06.332Z,101626.76171875
2022-10-19T02:57:06.271Z,101629.8125
2022-10-19T02:58:06.339Z,101626.13671875
2022-10-19T02:59:06.184Z,101625.1875
2022-10-19T03:00:06.520Z,101624.640625
2022-10-19T03:01:06.271Z,101623.875
2022-10-19T03:02:06.328Z,101625.30078125
2022-10-19T03:03:06.209Z,101624.1484375
2022-10-19T03:04:09.323Z,101620.5234375
2022-10-19T03:05:06.527Z,101620.875
2022-10-19T03:06:06.322Z,101617.4140625
2022-10-19T03:07:06.284Z,101617.30859375
2022-10-19T03:08:06.343Z,101615.73046875
2022-10-19T03:09:06.148Z,101616.05859375
2022-10-19T03:10:06.618Z,101618.25390625
2022-10-19T03:11:06.160Z,101618.80078125
2022-10-19T03:12:06.153Z,101623.53515625
2022-10-19T03:13:06.154Z,101622.54296875
2022-10-19T03:14:06.156Z,101623.55078125
2022-10-19T03:15:12.351Z,101620.7109375
2022-10-19T03:16:06.247Z,101622.40625
2022-10-19T03:17:06.162Z,101620.50390625
2022-10-19T03:18:06.162Z,101620.953125
2022-10-19T03:19:06.276Z,101621.71484375
2022-10-19T03:20:06.589Z,101620.95703125
2022-10-19T03:21:06.263Z,101617.625
2022-10-19T03:22:06.296Z,101615.75
2022-10-19T03:23:06.341Z,101613.94921875
2022-10-19T03:24:06.152Z,101612.4765625
2022-10-19T03:25:06.518Z,101612.92578125
2022-10-19T03:26:12.178Z,101614.796875
2022-10-19T03:27:06.350Z,101612.4765625
2022-10-19T03:28:06.277Z,101614.9609375
2022-10-19T03:29:06.351Z,101613.24609375
2022-10-19T03:30:06.610Z,101618.6171875
2022-10-19T03:31:06.332Z,101620.109375
2022-10-19T03:32:06.303Z,101619.7265625
2022-10-19T03:33:06.264Z,101618.734375
2022-10-19T03:34:06.316Z,101615.234375
2022-10-19T03:35:06.783Z,101612.9921875
2022-10-19T03:36:06.264Z,101614.8125
2022-10-19T03:37:09.199Z,101613.98828125
2022-10-19T03:38:06.231Z,101614.203125
2022-10-19T03:39:06.135Z,101612.61328125
2022-10-19T03:40:06.514Z,101610.67578125
2022-10-19T03:41:06.280Z,101611.00390625
2022-10-19T03:42:06.279Z,101610.51171875
2022-10-19T03:43:06.158Z,101605.91015625
2022-10-19T03:44:06.292Z,101610.828125
2022-10-19T03:45:06.203Z,101612.46484375
2022-10-19T03:46:06.224Z,101610.8203125
2022-10-19T03:47:06.262Z,101612.46484375
2022-10-19T03:48:09.259Z,101612.2578125
2022-10-19T03:49:06.334Z,101615.2578125
2022-10-19T03:50:06.533Z,101615.53515625
2022-10-19T03:51:06.251Z,101611.8203125
2022-10-19T03:52:06.161Z,101615.2109375
2022-10-19T03:53:06.147Z,101618.33203125
2022-10-19T03:54:06.290Z,101615.984375
2022-10-19T03:55:06.590Z,101619.09765625
2022-10-19T03:56:06.387Z,101622.16796875
2022-10-19T03:57:06.275Z,101625.2890625
2022-10-19T03:58:06.265Z,101620.4765625
2022-10-19T03:59:09.298Z,101624.85546875
2022-10-19T04:00:06.626Z,101622.3203125
2022-10-19T04:01:06.371Z,101621.18359375
2022-10-19T04:02:06.153Z,101620.91796875
2022-10-19T04:03:06.132Z,101619.8671875
2022-10-19T04:04:06.249Z,101620.484375
2022-10-19T04:05:06.311Z,101619.828125
2022-10-19T04:06:06.260Z,101618.671875
2022-10-19T04:07:06.287Z,101622.17578125
2022-10-19T04:08:06.291Z,101626.84375
2022-10-19T04:09:06.159Z,101623.4453125
2022-10-19T04:10:09.204Z,101622.24609375
2022-10-19T04:11:06.258Z,101622.34375
2022-10-19T04:12:06.147Z,101622.1875
2022-10-19T04:13:06.159Z,101622.25
2022-10-19T04:14:06.167Z,101621.71484375
2022-10-19T04:15:06.595Z,101624.61328125
2022-10-19T04:16:06.268Z,101625.25390625
2022-10-19T04:17:06.244Z,101625.02734375
2022-10-19T04:18:06.269Z,101626.01953125
2022-10-19T04:19:06.215Z,101628.546875
2022-10-19T04:20:06.596Z,101626.35546875
2022-10-19T04:21:09.252Z,101631.07421875
2022-10-19T04:22:06.268Z,101628.82421875
2022-10-19T04:23:06.332Z,101624.15234375
2022-10-19T04:24:06.161Z,101624.70703125
2022-10-19T04:25:06.620Z,101621.36328125
2022-10-19T04:26:06.253Z,101623.3828125
2022-10-19T04:27:06.149Z,101620.4296875
2022-10-19T04:28:06.179Z,101624.08984375
2022-10-19T04:29:06.265Z,101622.56640625
2022-10-19T04:30:06.332Z,101622.4140625
2022-10-19T04:31:06.320Z,101627.83984375
2022-10-19T04:32:09.185Z,101621.69140625
2022-10-19T04:33:06.226Z,101625.30859375
2022-10-19T04:34:06.149Z,101627.5
2022-10-19T04:35:06.587Z,101623.453125
2022-10-19T04:36:06.231Z,101624.8125
2022-10-19T04:37:06.153Z,101625.69140625
2022-10-19T04:38:06.215Z,101627.0625
2022-10-19T04:39:06.264Z,101625.53125
2022-10-19T04:40:07.958Z,101625.48046875
2022-10-19T04:41:06.336Z,101624.66015625
2022-10-19T04:42:06.245Z,101626.68359375
2022-10-19T04:43:09.337Z,101622.34375
2022-10-19T04:44:06.317Z,101621.97265625
2022-10-19T04:45:06.690Z,101626.34375
2022-10-19T04:46:06.231Z,101623.27734375
2022-10-19T04:47:06.239Z,101625.7421875
2022-10-19T04:48:06.272Z,101626.19140625
2022-10-19T04:49:06.145Z,101626.9453125
2022-10-19T04:50:06.631Z,101628.6015625
2022-10-19T04:51:06.321Z,101632.4375
2022-10-19T04:52:06.290Z,101634.23828125
2022-10-19T04:53:06.350Z,101633.81640625
2022-10-19T04:54:09.325Z,101632.8203125
2022-10-19T04:55:06.514Z,101633.75390625
2022-10-19T04:56:06.143Z,101631.78515625
2022-10-19T04:57:06.202Z,101630.18359375
2022-10-19T04:58:06.288Z,101627.1953125
2022-10-19T04:59:06.220Z,101633.3203125
2022-10-19T05:00:06.527Z,101634.03515625
2022-10-19T05:01:06.362Z,101635.93359375
2022-10-19T05:02:06.231Z,101631.43359375
2022-10-19T05:03:06.262Z,101628.82421875
2022-10-19T05:04:06.315Z,101629.6328125
2022-10-19T05:05:12.210Z,101632.0078125
2022-10-19T05:06:06.227Z,101632.1015625
2022-10-19T05:07:06.273Z,101631.19140625
2022-10-19T05:08:06.339Z,101628.33984375
2022-10-19T05:09:06.150Z,101625.8203125
2022-10-19T05:10:06.693Z,101628.7109375
2022-10-19T05:11:06.154Z,101627.37890625
2022-10-19T05:12:06.257Z,101630.98046875
2022-10-19T05:13:06.336Z,101627.265625
2022-10-19T05:14:06.265Z,101629.2265625
2022-10-19T05:15:06.586Z,101633.53515625
2022-10-19T05:16:09.289Z,101631.40625
2022-10-19T05:17:06.264Z,101635.32421875
2022-10-19T05:18:06.222Z,101634.66015625
2022-10-19T05:19:06.141Z,101635.5
2022-10-19T05:20:06.676Z,101634.58984375
2022-10-19T05:21:06.229Z,101633.3046875
2022-10-19T05:22:06.291Z,101634.0546875
2022-10-19T05:23:07.355Z,101636.08984375
2022-10-19T05:24:06.262Z,101635.0703125
2022-10-19T05:25:06.674Z,101635.02734375
2022-10-19T05:26:06.353Z,101637.5
2022-10-19T05:27:09.272Z,101637.29296875
2022-10-19T05:28:06.215Z,101638.2890625
2022-10-19T05:29:06.304Z,101638.140625
2022-10-19T05:30:06.517Z,101639.5078125
2022-10-19T05:31:06.341Z,101637.7265625
2022-10-19T05:32:06.224Z,101640.1953125
2022-10-19T05:33:06.204Z,101642.9921875
2022-10-19T05:35:14.731Z,101641.77734375
2022-10-19T05:36:12.962Z,101641.03125
2022-10-19T05:37:13.001Z,101641.4609375
2022-10-19T05:38:13.074Z,101642.0703125
2022-10-19T05:39:13.122Z,101634.67578125
2022-10-19T05:40:19.122Z,101635.1171875
2022-10-19T05:41:12.976Z,101633.82421875
2022-10-19T05:42:12.868Z,101635.45703125
2022-10-19T05:43:12.899Z,101632.8359375
2022-10-19T05:44:12.962Z,101629.07421875
2022-10-19T05:45:13.269Z,101633.17578125
2022-10-19T05:46:12.875Z,101634.3203125
2022-10-19T05:47:12.963Z,101633.07421875
2022-10-19T05:48:13.019Z,101628.57421875
2022-10-19T05:49:13.045Z,101630.70703125
2022-10-19T05:50:13.384Z,101631.74609375
2022-10-19T05:51:16.025Z,101629.046875
2022-10-19T05:52:13.101Z,101624.4609375
2022-10-19T05:53:13.061Z,101629.1328125
2022-10-19T05:54:12.874Z,101628.02734375
2022-10-19T05:55:13.325Z,101627.63671875
2022-10-19T05:56:13.057Z,101632.50390625
2022-10-19T05:57:12.970Z,101628.60546875
2022-10-19T05:58:12.989Z,101630.2578125
2022-10-19T05:59:13.061Z,101632.921875
2022-10-19T06:00:13.244Z,101633.75390625
2022-10-19T06:01:13.082Z,101635.0625
2022-10-19T06:02:15.967Z,101637.03515625
2022-10-19T06:03:12.993Z,101638.1875
2022-10-19T06:04:13.065Z,101641.80078125
2022-10-19T06:05:13.321Z,101641.48046875
2022-10-19T06:06:12.985Z,101641.96484375
2022-10-19T06:07:12.873Z,101643.79296875
2022-10-19T06:08:12.881Z,101641.0546875
2022-10-19T06:09:12.875Z,101640.5546875
2022-10-19T06:10:13.313Z,101641.921875
2022-10-19T06:11:13.040Z,101636.05078125
2022-10-19T06:12:14.096Z,101633.578125
2022-10-19T06:13:15.936Z,101632.5625
2022-10-19T06:14:13.063Z,101629.53515625
2022-10-19T06:15:13.316Z,101628.61328125
2022-10-19T06:16:13.089Z,101628.734375
2022-10-19T06:17:13.079Z,101631.07421875
2022-10-19T06:18:12.872Z,101628.4453125
2022-10-19T06:19:12.887Z,101629.21484375
2022-10-19T06:20:13.333Z,101627.3828125
2022-10-19T06:21:12.980Z,101632.3828125
2022-10-19T06:22:12.956Z,101630.7890625
2022-10-19T06:23:12.946Z,101629.390625
2022-10-19T06:24:15.937Z,101625.71875
2022-10-19T06:25:16.561Z,101624.99609375
2022-10-19T06:26:13.103Z,101630.5390625
2022-10-19T06:27:12.952Z,101635.39453125
2022-10-19T06:28:13.031Z,101634.625
2022-10-19T06:29:13.030Z,101635.28515625
2022-10-19T06:30:13.388Z,101633.75390625
2022-10-19T06:31:12.899Z,101636.8203125
2022-10-19T06:32:12.891Z,101635.11328125
2022-10-19T06:33:13.018Z,101631.94921875
2022-10-19T06:34:13.043Z,101634.6171875
2022-10-19T06:35:19.351Z,101635.171875
2022-10-19T06:36:13.062Z,101636.76953125
2022-10-19T06:37:12.939Z,101637.3046875
2022-10-19T06:38:13.017Z,101638.02734375
2022-10-19T06:39:13.029Z,101643.33984375
2022-10-19T06:40:13.317Z,101644.9609375
2022-10-19T06:41:12.956Z,101645.2421875
2022-10-19T06:42:13.022Z,101648.328125
2022-10-19T06:43:13.010Z,101651.24609375
2022-10-19T06:44:12.876Z,101647.25390625
2022-10-19T06:45:13.395Z,101649.15234375
2022-10-19T06:46:16.159Z,101648.7734375
2022-10-19T06:47:13.019Z,101643.7109375
2022-10-19T06:48:12.905Z,101643.05859375
2022-10-19T06:49:12.909Z,101644.70703125
2022-10-19T06:50:13.422Z,101649.8515625
2022-10-19T06:51:12.975Z,101649.13671875
2022-10-19T06:52:12.894Z,101644.984375
2022-10-19T06:53:12.962Z,101645.49609375
2022-10-19T06:54:12.917Z,101646.73828125
2022-10-19T06:55:13.326Z,101648.16796875
2022-10-19T06:56:13.085Z,101642.46484375
2022-10-19T06:57:16.139Z,101644.61328125
2022-10-19T06:58:13.122Z,101640.44140625
2022-10-19T06:59:13.512Z,101644.23046875
2022-10-19T07:00:13.316Z,101642.3046875
2022-10-19T07:01:13.191Z,101642.51171875
2022-10-19T07:02:13.097Z,101643.80078125
2022-10-19T07:03:12.987Z,101642.6015625
2022-10-19T07:04:12.901Z,101643.546875
2022-10-19T07:05:13.326Z,101648.77734375
2022-10-19T07:06:12.959Z,101644.66015625
2022-10-19T07:07:13.023Z,101643.0703125
2022-10-19T07:08:16.089Z,101647.32421875
2022-10-19T07:09:12.965Z,101646.99609375
2022-10-19T07:10:13.324Z,101648.80078125
2022-10-19T07:11:12.974Z,101650.75390625
2022-10-19T07:12:12.871Z,101652.62890625
2022-10-19T07:13:13.033Z,101651.3828125
2022-10-19T07:14:12.913Z,101650.578125
2022-10-19T07:15:13.318Z,101650.84765625
2022-10-19T07:16:16.096Z,101650.4921875
2022-10-19T07:17:12.954Z,101655.49609375
2022-10-19T07:18:13.016Z,101651.05859375
2022-10-19T07:19:16.039Z,101652.21875
2022-10-19T07:20:13.258Z,101654.1328125
2022-10-19T07:21:13.093Z,101656.1171875
2022-10-19T07:22:17.345Z,101659.23828125
2022-10-19T07:23:12.999Z,101655.73828125
2022-10-19T07:24:13.056Z,101659.40234375
2022-10-19T07:25:13.239Z,101658.15234375
2022-10-19T07:26:13.005Z,101663.35546875
2022-10-19T07:27:12.932Z,101662.5390625
2022-10-19T07:28:12.972Z,101665.92578125
2022-10-19T07:29:12.992Z,101663.89453125
2022-10-19T07:30:18.933Z,101664.44921875
2022-10-19T07:31:12.996Z,101669.5546875
2022-10-19T07:32:13.023Z,101664.015625
2022-10-19T07:33:13.103Z,101662.86328125
2022-10-19T07:34:13.096Z,101659.5546875
2022-10-19T07:35:13.321Z,101658.3359375
2022-10-19T07:36:12.909Z,101659.91796875
2022-10-19T07:37:12.905Z,101656.52734375
2022-10-19T07:38:12.894Z,101660.15625
2022-10-19T07:39:12.877Z,101662.84375
2022-10-19T07:40:13.259Z,101661.4296875
2022-10-19T07:41:13.018Z,101664.78515625
2022-10-19T07:42:13.086Z,101663.18359375
2022-10-19T07:43:12.925Z,101666.75390625
2022-10-19T07:44:15.585Z,101667.94140625
2022-10-19T07:45:13.312Z,101669.16015625
2022-10-19T07:46:16.100Z,101669.05078125
2022-10-19T07:47:13.028Z,101668.4609375
2022-10-19T07:48:12.875Z,101673.11328125
2022-10-19T07:49:13.031Z,101669.765625
2022-10-19T07:50:13.246Z,101672.56640625
2022-10-19T07:51:13.003Z,101668.89453125
2022-10-19T07:52:15.722Z,101668.8828125
2022-10-19T07:53:13.022Z,101670.89453125
2022-10-19T07:54:12.974Z,101676.375
2022-10-19T07:55:13.372Z,101680.87109375
2022-10-19T07:56:12.987Z,101677.8203125
2022-10-19T07:57:15.951Z,101684.26953125
2022-10-19T07:58:13.051Z,101684.7734375
2022-10-19T07:59:12.872Z,101681.81640625
2022-10-19T08:00:13.312Z,101685.265625
2022-10-19T08:01:12.987Z,101686.5546875
2022-10-19T08:02:13.069Z,101681.3125
2022-10-19T08:04:31.240Z,101684.46875
2022-10-19T08:04:55.528Z,101687.9765625
2022-10-19T08:05:13.575Z,101684.8671875
2022-10-19T08:06:12.986Z,101689.14453125
2022-10-19T08:07:13.043Z,101685.58984375
2022-10-19T08:08:16.053Z,101685.61328125
2022-10-19T08:09:27.728Z,101691.71484375
2022-10-19T08:10:13.316Z,101689.9296875
2022-10-19T08:11:12.956Z,101690.5234375
2022-10-19T08:12:15.336Z,101687.68359375
2022-10-19T08:13:13.060Z,101684.29296875
2022-10-19T08:14:13.044Z,101684.78515625
2022-10-19T08:15:13.365Z,101677.86328125
2022-10-19T08:16:13.028Z,101678.70703125
2022-10-19T08:17:12.974Z,101682
2022-10-19T08:18:13.011Z,101681.3046875
2022-10-19T08:19:15.921Z,101683.01171875
2022-10-19T08:20:13.250Z,101685.23046875
2022-10-19T08:21:12.941Z,101689.8828125
2022-10-19T08:22:12.891Z,101688.8515625
2022-10-19T08:23:12.891Z,101688.85546875
2022-10-19T08:24:13.088Z,101684.74609375
2022-10-19T08:25:13.293Z,101681.72265625
2022-10-19T08:26:12.929Z,101689.40234375
2022-10-19T08:27:13.008Z,101683.73828125
2022-10-19T08:28:13.077Z,101681.44921875
2022-10-19T08:29:12.969Z,101676.44140625
2022-10-19T08:30:19.043Z,101674.80078125
2022-10-19T08:31:13.009Z,101670.43359375
2022-10-19T08:32:12.878Z,101667.54296875
2022-10-19T08:33:12.983Z,101666.4296875
2022-10-19T08:34:13.099Z,101664.43359375
2022-10-19T08:35:13.246Z,101662.23046875
2022-10-19T08:36:13.005Z,101663.22265625
2022-10-19T08:37:25.829Z,101661.3984375
2022-10-19T08:38:13.102Z,101665.75390625
2022-10-19T08:39:12.989Z,101662.96484375
2022-10-19T08:40:13.319Z,101665.515625
2022-10-19T08:41:16.170Z,101660.41796875
2022-10-19T08:42:12.963Z,101656.13671875
2022-10-19T08:43:12.894Z,101651.94140625
2022-10-19T08:44:12.888Z,101654.3515625
2022-10-19T08:45:13.012Z,101655.28125
2022-10-19T08:46:12.999Z,101653.6640625
2022-10-19T08:47:13.874Z,101652.64453125
2022-10-19T08:48:12.937Z,101649.5234375
2022-10-19T08:49:12.874Z,101648.9296875
2022-10-19T08:50:13.330Z,101646.90625
2022-10-19T08:51:13.104Z,101645.15234375
2022-10-19T08:52:16.069Z,101641.47265625
2022-10-19T08:53:12.996Z,101642.6796875
2022-10-19T08:54:12.868Z,101640.89453125
2022-10-19T08:55:16.433Z,101643.82421875
2022-10-19T08:56:22.105Z,101644.96875
2022-10-19T08:57:12.977Z,101645.7734375
2022-10-19T08:58:12.881Z,101647.34375
2022-10-19T08:59:13.035Z,101642.2265625
2022-10-19T09:00:13.251Z,101647.0703125
2022-10-19T09:01:13.090Z,101643.88671875
2022-10-19T09:02:13.033Z,101643.90234375
2022-10-19T09:03:22.972Z,101644.0546875
2022-10-19T09:04:13.099Z,101640.76171875
2022-10-19T09:05:13.321Z,101642.90625
2022-10-19T09:06:12.965Z,101646.60546875
2022-10-19T09:07:12.890Z,101640.82421875
2022-10-19T09:08:16.832Z,101637.2421875
2022-10-19T09:09:12.938Z,101642.81640625
2022-10-19T09:10:13.318Z,101642.0703125
2022-10-19T09:11:13.112Z,101646.74609375
2022-10-19T09:12:13.095Z,101642.3984375
2022-10-19T09:13:13.110Z,101641.2421875
2022-10-19T09:14:15.896Z,101640.6015625
2022-10-19T09:15:13.249Z,101639.46875
2022-10-19T09:16:13.083Z,101641.0546875
2022-10-19T09:17:13.015Z,101641.19140625
2022-10-19T09:18:13.045Z,101637.38671875
2022-10-19T09:19:12.870Z,101635.68359375
2022-10-19T09:20:13.253Z,101637.37890625
2022-10-19T09:21:13.022Z,101636.421875
2022-10-19T09:22:13.104Z,101636.6953125
2022-10-19T09:23:13.486Z,101638.66796875
2022-10-19T09:24:12.962Z,101639.05859375
2022-10-19T09:25:16.370Z,101637.85546875
2022-10-19T09:26:12.954Z,101634.10546875
2022-10-19T09:27:12.872Z,101634.56640625
2022-10-19T09:28:13.010Z,101632.5390625
2022-10-19T09:29:12.984Z,101637.3046875
2022-10-19T09:30:13.318Z,101630.20703125
2022-10-19T09:31:12.881Z,101631.41015625
2022-10-19T09:32:13.025Z,101633.3125
2022-10-19T09:33:15.399Z,101633.7265625
2022-10-19T09:34:12.984Z,101631.91015625
2022-10-19T09:35:13.241Z,101629.6640625
2022-10-19T09:36:22.610Z,101633.828125
2022-10-19T09:37:21.102Z,101635.1171875
2022-10-19T09:38:12.986Z,101625.70703125
2022-10-19T09:39:12.969Z,101634.08203125
2022-10-19T09:40:13.423Z,101630.3828125
2022-10-19T09:41:13.047Z,101630.48828125
2022-10-19T09:42:12.881Z,101626.04296875
2022-10-19T09:43:12.999Z,101625.21875
2022-10-19T09:44:13.033Z,101623.7421875
2022-10-19T09:45:13.358Z,101628.56640625
2022-10-19T09:46:19.789Z,101625.08984375
2022-10-19T09:47:16.036Z,101625.32421875
2022-10-19T09:48:13.341Z,101628.56640625
2022-10-19T09:49:12.938Z,101628.25
2022-10-19T09:50:13.389Z,101633.125
2022-10-19T09:51:12.996Z,101633.04296875
2022-10-19T09:52:12.895Z,101636.06640625
2022-10-19T09:53:12.878Z,101636.0625
2022-10-19T09:54:12.994Z,101636.73828125
2022-10-19T09:55:13.319Z,101633.46875
2022-10-19T09:56:13.093Z,101635.1796875
2022-10-19T09:57:13.113Z,101634.4765625
2022-10-19T09:58:15.986Z,101638.15625
2022-10-19T09:59:13.066Z,101631.77734375
2022-10-19T10:00:13.316Z,101631.59765625
2022-10-19T10:01:13.070Z,101630.328125